sensor_id;sensor_type;location;lat;lon;timestamp;P1;durP1;ratioP1;P2;durP2;ratioP2
39098;SDS011;24844;52.380;7.018;2024-01-30T00:01:02;26.45;;;15.93;;
39098;SDS011;24844;52.380;7.018;2024-01-30T00:03:27;23.35;;;15.15;;
39098;SDS011;24844;52.380;7.018;2024-01-30T00:05:54;26.30;;;16.23;;
39098;SDS011;24844;52.380;7.018;2024-01-30T00:08:20;22.95;;;14.50;;
39098;SDS011;24844;52.380;7.018;2024-01-30T00:10:46;28.92;;;16.30;;
39098;SDS011;24844;52.380;7.018;2024-01-30T00:13:11;27.33;;;16.35;;
39098;SDS011;24844;52.380;7.018;2024-01-30T00:15:39;30.27;;;18.42;;
39098;SDS011;24844;52.380;7.018;2024-01-30T00:18:04;31.80;;;18.17;;
39098;SDS011;24844;52.380;7.018;2024-01-30T00:20:30;35.92;;;18.00;;
39098;SDS011;24844;52.380;7.018;2024-01-30T00:22:55;35.85;;;17.77;;
39098;SDS011;24844;52.380;7.018;2024-01-30T00:25:21;32.58;;;18.30;;
39098;SDS011;24844;52.380;7.018;2024-01-30T00:27:46;36.05;;;18.40;;
39098;SDS011;24844;52.380;7.018;2024-01-30T00:30:12;38.72;;;18.92;;
39098;SDS011;24844;52.380;7.018;2024-01-30T00:32:38;44.80;;;21.08;;
39098;SDS011;24844;52.380;7.018;2024-01-30T00:35:03;46.40;;;20.75;;
39098;SDS011;24844;52.380;7.018;2024-01-30T00:37:29;34.30;;;17.23;;
39098;SDS011;24844;52.380;7.018;2024-01-30T00:39:56;44.05;;;20.13;;
39098;SDS011;24844;52.380;7.018;2024-01-30T00:42:22;38.70;;;17.90;;
39098;SDS011;24844;52.380;7.018;2024-01-30T00:44:48;26.42;;;14.45;;
39098;SDS011;24844;52.380;7.018;2024-01-30T00:47:14;20.77;;;12.85;;
39098;SDS011;24844;52.380;7.018;2024-01-30T00:49:40;18.42;;;13.10;;
39098;SDS011;24844;52.380;7.018;2024-01-30T00:52:05;18.20;;;12.18;;
39098;SDS011;24844;52.380;7.018;2024-01-30T00:54:31;18.67;;;12.93;;
39098;SDS011;24844;52.380;7.018;2024-01-30T00:56:57;18.95;;;12.32;;
39098;SDS011;24844;52.380;7.018;2024-01-30T00:59:22;26.85;;;13.20;;
39098;SDS011;24844;52.380;7.018;2024-01-30T01:01:48;17.35;;;12.80;;
39098;SDS011;24844;52.380;7.018;2024-01-30T01:04:13;23.02;;;13.20;;
39098;SDS011;24844;52.380;7.018;2024-01-30T01:06:39;20.88;;;12.65;;
39098;SDS011;24844;52.380;7.018;2024-01-30T01:09:07;18.70;;;12.63;;
39098;SDS011;24844;52.380;7.018;2024-01-30T01:11:33;20.83;;;13.50;;
39098;SDS011;24844;52.380;7.018;2024-01-30T01:13:58;17.60;;;12.48;;
39098;SDS011;24844;52.380;7.018;2024-01-30T01:16:24;20.58;;;12.68;;
39098;SDS011;24844;52.380;7.018;2024-01-30T01:18:49;24.63;;;15.02;;
39098;SDS011;24844;52.380;7.018;2024-01-30T01:21:15;21.45;;;13.20;;
39098;SDS011;24844;52.380;7.018;2024-01-30T01:23:41;18.80;;;13.93;;
39098;SDS011;24844;52.380;7.018;2024-01-30T01:26:07;20.02;;;13.65;;
39098;SDS011;24844;52.380;7.018;2024-01-30T01:28:34;21.67;;;14.20;;
39098;SDS011;24844;52.380;7.018;2024-01-30T01:31:00;21.13;;;14.63;;
39098;SDS011;24844;52.380;7.018;2024-01-30T01:33:30;19.10;;;12.93;;
39098;SDS011;24844;52.380;7.018;2024-01-30T01:35:57;20.40;;;13.77;;
39098;SDS011;24844;52.380;7.018;2024-01-30T01:38:23;24.25;;;13.02;;
39098;SDS011;24844;52.380;7.018;2024-01-30T01:40:49;18.48;;;13.18;;
39098;SDS011;24844;52.380;7.018;2024-01-30T01:43:15;17.10;;;13.32;;
39098;SDS011;24844;52.380;7.018;2024-01-30T01:45:40;18.08;;;12.55;;
39098;SDS011;24844;52.380;7.018;2024-01-30T01:48:06;23.58;;;12.77;;
39098;SDS011;24844;52.380;7.018;2024-01-30T01:50:33;19.33;;;12.88;;
39098;SDS011;24844;52.380;7.018;2024-01-30T01:52:59;16.83;;;12.68;;
39098;SDS011;24844;52.380;7.018;2024-01-30T01:55:24;17.65;;;12.55;;
39098;SDS011;24844;52.380;7.018;2024-01-30T01:57:53;19.20;;;13.23;;
39098;SDS011;24844;52.380;7.018;2024-01-30T02:00:19;18.67;;;12.77;;
39098;SDS011;24844;52.380;7.018;2024-01-30T02:02:45;19.35;;;12.65;;
39098;SDS011;24844;52.380;7.018;2024-01-30T02:05:11;18.02;;;13.07;;
39098;SDS011;24844;52.380;7.018;2024-01-30T02:07:37;19.00;;;13.35;;
39098;SDS011;24844;52.380;7.018;2024-01-30T02:10:03;18.48;;;13.43;;
39098;SDS011;24844;52.380;7.018;2024-01-30T02:12:29;16.45;;;12.75;;
39098;SDS011;24844;52.380;7.018;2024-01-30T02:14:55;18.42;;;13.63;;
39098;SDS011;24844;52.380;7.018;2024-01-30T02:17:20;20.42;;;13.30;;
39098;SDS011;24844;52.380;7.018;2024-01-30T02:19:48;19.67;;;13.20;;
39098;SDS011;24844;52.380;7.018;2024-01-30T02:22:13;17.77;;;13.45;;
39098;SDS011;24844;52.380;7.018;2024-01-30T02:24:40;17.02;;;13.18;;
39098;SDS011;24844;52.380;7.018;2024-01-30T02:27:05;19.80;;;13.55;;
39098;SDS011;24844;52.380;7.018;2024-01-30T02:29:31;18.60;;;12.80;;
39098;SDS011;24844;52.380;7.018;2024-01-30T02:31:56;16.73;;;12.93;;
39098;SDS011;24844;52.380;7.018;2024-01-30T02:34:22;20.05;;;13.32;;
39098;SDS011;24844;52.380;7.018;2024-01-30T02:36:48;19.92;;;13.95;;
39098;SDS011;24844;52.380;7.018;2024-01-30T02:39:14;19.17;;;13.70;;
39098;SDS011;24844;52.380;7.018;2024-01-30T02:41:39;18.13;;;14.10;;
39098;SDS011;24844;52.380;7.018;2024-01-30T02:44:05;18.77;;;14.05;;
39098;SDS011;24844;52.380;7.018;2024-01-30T02:46:30;18.65;;;13.07;;
39098;SDS011;24844;52.380;7.018;2024-01-30T02:48:56;23.98;;;14.40;;
39098;SDS011;24844;52.380;7.018;2024-01-30T02:51:22;24.15;;;14.43;;
39098;SDS011;24844;52.380;7.018;2024-01-30T02:53:47;18.65;;;13.48;;
39098;SDS011;24844;52.380;7.018;2024-01-30T02:56:13;18.48;;;13.35;;
39098;SDS011;24844;52.380;7.018;2024-01-30T02:58:39;20.15;;;14.25;;
39098;SDS011;24844;52.380;7.018;2024-01-30T03:01:05;17.40;;;14.00;;
39098;SDS011;24844;52.380;7.018;2024-01-30T03:03:31;21.05;;;14.82;;
39098;SDS011;24844;52.380;7.018;2024-01-30T03:05:59;21.65;;;15.13;;
39098;SDS011;24844;52.380;7.018;2024-01-30T03:08:24;26.88;;;15.23;;
39098;SDS011;24844;52.380;7.018;2024-01-30T03:10:50;20.77;;;15.43;;
39098;SDS011;24844;52.380;7.018;2024-01-30T03:13:15;18.98;;;14.25;;
39098;SDS011;24844;52.380;7.018;2024-01-30T03:15:41;23.08;;;15.43;;
39098;SDS011;24844;52.380;7.018;2024-01-30T03:18:06;20.83;;;14.95;;
39098;SDS011;24844;52.380;7.018;2024-01-30T03:20:32;19.85;;;15.30;;
39098;SDS011;24844;52.380;7.018;2024-01-30T03:22:59;18.80;;;14.23;;
39098;SDS011;24844;52.380;7.018;2024-01-30T03:25:25;24.73;;;16.20;;
39098;SDS011;24844;52.380;7.018;2024-01-30T03:27:51;20.00;;;14.30;;
39098;SDS011;24844;52.380;7.018;2024-01-30T03:30:17;21.73;;;14.88;;
39098;SDS011;24844;52.380;7.018;2024-01-30T03:32:43;21.33;;;14.38;;
39098;SDS011;24844;52.380;7.018;2024-01-30T03:35:09;21.70;;;14.57;;
39098;SDS011;24844;52.380;7.018;2024-01-30T03:37:34;20.48;;;14.70;;
39098;SDS011;24844;52.380;7.018;2024-01-30T03:40:00;21.85;;;15.50;;
39098;SDS011;24844;52.380;7.018;2024-01-30T03:42:27;22.58;;;14.98;;
39098;SDS011;24844;52.380;7.018;2024-01-30T03:44:53;20.58;;;14.48;;
39098;SDS011;24844;52.380;7.018;2024-01-30T03:47:20;21.15;;;14.45;;
39098;SDS011;24844;52.380;7.018;2024-01-30T03:49:46;22.63;;;15.55;;
39098;SDS011;24844;52.380;7.018;2024-01-30T03:52:11;19.42;;;14.40;;
39098;SDS011;24844;52.380;7.018;2024-01-30T03:54:37;20.02;;;13.95;;
39098;SDS011;24844;52.380;7.018;2024-01-30T03:57:03;20.75;;;15.18;;
39098;SDS011;24844;52.380;7.018;2024-01-30T03:59:28;21.52;;;15.38;;
39098;SDS011;24844;52.380;7.018;2024-01-30T04:01:54;22.60;;;15.20;;
39098;SDS011;24844;52.380;7.018;2024-01-30T04:04:20;22.45;;;15.93;;
39098;SDS011;24844;52.380;7.018;2024-01-30T04:06:46;23.35;;;15.00;;
39098;SDS011;24844;52.380;7.018;2024-01-30T04:09:12;22.75;;;15.20;;
39098;SDS011;24844;52.380;7.018;2024-01-30T04:11:38;21.75;;;15.77;;
39098;SDS011;24844;52.380;7.018;2024-01-30T04:14:04;19.00;;;14.63;;
39098;SDS011;24844;52.380;7.018;2024-01-30T04:16:30;21.27;;;15.38;;
39098;SDS011;24844;52.380;7.018;2024-01-30T04:18:56;23.95;;;15.68;;
39098;SDS011;24844;52.380;7.018;2024-01-30T04:21:21;20.67;;;16.15;;
39098;SDS011;24844;52.380;7.018;2024-01-30T04:23:47;22.80;;;15.25;;
39098;SDS011;24844;52.380;7.018;2024-01-30T04:26:13;22.63;;;16.20;;
39098;SDS011;24844;52.380;7.018;2024-01-30T04:28:41;22.75;;;16.42;;
39098;SDS011;24844;52.380;7.018;2024-01-30T04:31:07;21.50;;;16.60;;
39098;SDS011;24844;52.380;7.018;2024-01-30T04:33:33;23.83;;;17.10;;
39098;SDS011;24844;52.380;7.018;2024-01-30T04:35:59;22.50;;;15.68;;
39098;SDS011;24844;52.380;7.018;2024-01-30T04:38:24;20.55;;;15.02;;
39098;SDS011;24844;52.380;7.018;2024-01-30T04:40:50;23.33;;;14.27;;
39098;SDS011;24844;52.380;7.018;2024-01-30T04:43:15;21.08;;;15.77;;
39098;SDS011;24844;52.380;7.018;2024-01-30T04:45:41;22.63;;;16.38;;
39098;SDS011;24844;52.380;7.018;2024-01-30T04:48:07;24.23;;;16.88;;
39098;SDS011;24844;52.380;7.018;2024-01-30T04:50:32;24.60;;;16.98;;
39098;SDS011;24844;52.380;7.018;2024-01-30T04:52:58;24.52;;;16.45;;
39098;SDS011;24844;52.380;7.018;2024-01-30T04:55:24;25.83;;;17.42;;
39098;SDS011;24844;52.380;7.018;2024-01-30T04:57:49;23.67;;;15.88;;
39098;SDS011;24844;52.380;7.018;2024-01-30T05:00:15;23.95;;;17.35;;
39098;SDS011;24844;52.380;7.018;2024-01-30T05:02:41;21.15;;;15.30;;
39098;SDS011;24844;52.380;7.018;2024-01-30T05:05:06;21.15;;;16.45;;
39098;SDS011;24844;52.380;7.018;2024-01-30T05:07:33;25.23;;;16.15;;
39098;SDS011;24844;52.380;7.018;2024-01-30T05:09:59;24.38;;;16.52;;
39098;SDS011;24844;52.380;7.018;2024-01-30T05:12:25;25.35;;;15.93;;
39098;SDS011;24844;52.380;7.018;2024-01-30T05:14:51;23.50;;;15.55;;
39098;SDS011;24844;52.380;7.018;2024-01-30T05:17:16;25.23;;;17.17;;
39098;SDS011;24844;52.380;7.018;2024-01-30T05:19:43;19.10;;;15.30;;
39098;SDS011;24844;52.380;7.018;2024-01-30T05:22:08;22.77;;;14.98;;
39098;SDS011;24844;52.380;7.018;2024-01-30T05:24:34;19.65;;;14.27;;
39098;SDS011;24844;52.380;7.018;2024-01-30T05:27:00;24.27;;;15.82;;
39098;SDS011;24844;52.380;7.018;2024-01-30T05:29:26;26.95;;;15.63;;
39098;SDS011;24844;52.380;7.018;2024-01-30T05:31:52;21.85;;;14.88;;
39098;SDS011;24844;52.380;7.018;2024-01-30T05:34:18;21.80;;;15.07;;
39098;SDS011;24844;52.380;7.018;2024-01-30T05:36:43;22.48;;;14.38;;
39098;SDS011;24844;52.380;7.018;2024-01-30T05:39:09;21.42;;;14.80;;
39098;SDS011;24844;52.380;7.018;2024-01-30T05:41:35;23.48;;;15.00;;
39098;SDS011;24844;52.380;7.018;2024-01-30T05:44:01;24.42;;;14.90;;
39098;SDS011;24844;52.380;7.018;2024-01-30T05:46:26;22.70;;;14.07;;
39098;SDS011;24844;52.380;7.018;2024-01-30T05:48:52;20.70;;;14.48;;
39098;SDS011;24844;52.380;7.018;2024-01-30T05:51:18;20.90;;;13.65;;
39098;SDS011;24844;52.380;7.018;2024-01-30T05:53:43;19.88;;;13.93;;
39098;SDS011;24844;52.380;7.018;2024-01-30T05:56:09;25.88;;;14.45;;
39098;SDS011;24844;52.380;7.018;2024-01-30T05:58:35;19.30;;;14.43;;
39098;SDS011;24844;52.380;7.018;2024-01-30T06:01:02;20.05;;;14.48;;
39098;SDS011;24844;52.380;7.018;2024-01-30T06:03:31;24.17;;;14.13;;
39098;SDS011;24844;52.380;7.018;2024-01-30T06:05:57;24.13;;;14.45;;
39098;SDS011;24844;52.380;7.018;2024-01-30T06:08:22;19.55;;;13.93;;
39098;SDS011;24844;52.380;7.018;2024-01-30T06:10:48;16.80;;;13.38;;
39098;SDS011;24844;52.380;7.018;2024-01-30T06:13:14;22.95;;;14.05;;
39098;SDS011;24844;52.380;7.018;2024-01-30T06:15:39;19.63;;;13.35;;
39098;SDS011;24844;52.380;7.018;2024-01-30T06:18:05;20.70;;;13.80;;
39098;SDS011;24844;52.380;7.018;2024-01-30T06:20:31;21.15;;;12.65;;
39098;SDS011;24844;52.380;7.018;2024-01-30T06:22:56;17.80;;;13.25;;
39098;SDS011;24844;52.380;7.018;2024-01-30T06:25:22;16.55;;;12.10;;
39098;SDS011;24844;52.380;7.018;2024-01-30T06:27:47;15.40;;;12.45;;
39098;SDS011;24844;52.380;7.018;2024-01-30T06:30:13;20.98;;;13.68;;
39098;SDS011;24844;52.380;7.018;2024-01-30T06:32:39;19.23;;;12.73;;
39098;SDS011;24844;52.380;7.018;2024-01-30T06:35:05;19.70;;;13.60;;
39098;SDS011;24844;52.380;7.018;2024-01-30T06:37:31;19.65;;;12.93;;
39098;SDS011;24844;52.380;7.018;2024-01-30T06:39:56;17.40;;;12.57;;
39098;SDS011;24844;52.380;7.018;2024-01-30T06:42:22;18.90;;;12.35;;
39098;SDS011;24844;52.380;7.018;2024-01-30T06:44:48;19.88;;;12.43;;
39098;SDS011;24844;52.380;7.018;2024-01-30T06:47:13;16.58;;;11.38;;
39098;SDS011;24844;52.380;7.018;2024-01-30T06:49:39;19.88;;;11.98;;
39098;SDS011;24844;52.380;7.018;2024-01-30T06:52:07;19.63;;;12.03;;
39098;SDS011;24844;52.380;7.018;2024-01-30T06:54:32;20.73;;;12.35;;
39098;SDS011;24844;52.380;7.018;2024-01-30T06:56:58;16.88;;;11.23;;
39098;SDS011;24844;52.380;7.018;2024-01-30T06:59:24;18.98;;;11.40;;
39098;SDS011;24844;52.380;7.018;2024-01-30T07:01:49;14.65;;;11.18;;
39098;SDS011;24844;52.380;7.018;2024-01-30T07:04:15;19.75;;;11.35;;
39098;SDS011;24844;52.380;7.018;2024-01-30T07:06:41;17.13;;;10.82;;
39098;SDS011;24844;52.380;7.018;2024-01-30T07:09:07;16.50;;;11.00;;
39098;SDS011;24844;52.380;7.018;2024-01-30T07:11:33;18.55;;;11.95;;
39098;SDS011;24844;52.380;7.018;2024-01-30T07:13:59;17.20;;;11.23;;
39098;SDS011;24844;52.380;7.018;2024-01-30T07:16:24;14.80;;;10.93;;
39098;SDS011;24844;52.380;7.018;2024-01-30T07:18:50;17.10;;;11.32;;
39098;SDS011;24844;52.380;7.018;2024-01-30T07:21:16;19.25;;;11.10;;
39098;SDS011;24844;52.380;7.018;2024-01-30T07:23:42;17.80;;;10.57;;
39098;SDS011;24844;52.380;7.018;2024-01-30T07:26:08;15.18;;;10.88;;
39098;SDS011;24844;52.380;7.018;2024-01-30T07:28:34;13.32;;;9.73;;
39098;SDS011;24844;52.380;7.018;2024-01-30T07:31:00;16.08;;;9.98;;
39098;SDS011;24844;52.380;7.018;2024-01-30T07:33:26;15.15;;;10.35;;
39098;SDS011;24844;52.380;7.018;2024-01-30T07:35:52;18.15;;;11.32;;
39098;SDS011;24844;52.380;7.018;2024-01-30T07:38:18;15.38;;;10.38;;
39098;SDS011;24844;52.380;7.018;2024-01-30T07:40:44;17.55;;;10.95;;
39098;SDS011;24844;52.380;7.018;2024-01-30T07:43:09;14.45;;;10.35;;
39098;SDS011;24844;52.380;7.018;2024-01-30T07:45:35;12.88;;;10.15;;
39098;SDS011;24844;52.380;7.018;2024-01-30T07:48:02;13.15;;;9.70;;
39098;SDS011;24844;52.380;7.018;2024-01-30T07:50:28;15.93;;;10.55;;
39098;SDS011;24844;52.380;7.018;2024-01-30T07:52:55;16.50;;;10.68;;
39098;SDS011;24844;52.380;7.018;2024-01-30T07:55:21;13.03;;;9.80;;
39098;SDS011;24844;52.380;7.018;2024-01-30T07:57:50;16.02;;;10.02;;
39098;SDS011;24844;52.380;7.018;2024-01-30T08:00:19;13.85;;;9.95;;
39098;SDS011;24844;52.380;7.018;2024-01-30T08:02:54;14.55;;;10.32;;
39098;SDS011;24844;52.380;7.018;2024-01-30T08:05:20;16.52;;;10.32;;
39098;SDS011;24844;52.380;7.018;2024-01-30T08:07:47;17.95;;;10.38;;
39098;SDS011;24844;52.380;7.018;2024-01-30T08:10:13;14.73;;;9.88;;
39098;SDS011;24844;52.380;7.018;2024-01-30T08:12:40;14.43;;;9.75;;
39098;SDS011;24844;52.380;7.018;2024-01-30T08:15:06;18.38;;;11.23;;
39098;SDS011;24844;52.380;7.018;2024-01-30T08:17:32;14.32;;;9.75;;
39098;SDS011;24844;52.380;7.018;2024-01-30T08:19:58;14.88;;;10.10;;
39098;SDS011;24844;52.380;7.018;2024-01-30T08:22:24;14.52;;;9.85;;
39098;SDS011;24844;52.380;7.018;2024-01-30T08:24:49;17.48;;;10.10;;
39098;SDS011;24844;52.380;7.018;2024-01-30T08:27:15;20.08;;;10.57;;
39098;SDS011;24844;52.380;7.018;2024-01-30T08:29:40;15.90;;;10.07;;
39098;SDS011;24844;52.380;7.018;2024-01-30T08:32:06;12.77;;;9.10;;
39098;SDS011;24844;52.380;7.018;2024-01-30T08:34:32;14.57;;;9.63;;
39098;SDS011;24844;52.380;7.018;2024-01-30T08:36:58;13.48;;;9.07;;
39098;SDS011;24844;52.380;7.018;2024-01-30T08:39:24;13.75;;;9.13;;
39098;SDS011;24844;52.380;7.018;2024-01-30T08:41:49;12.18;;;8.07;;
39098;SDS011;24844;52.380;7.018;2024-01-30T08:44:15;11.00;;;8.55;;
39098;SDS011;24844;52.380;7.018;2024-01-30T08:46:42;10.45;;;8.48;;
39098;SDS011;24844;52.380;7.018;2024-01-30T08:49:08;15.30;;;8.57;;
39098;SDS011;24844;52.380;7.018;2024-01-30T08:51:34;10.88;;;7.85;;
39098;SDS011;24844;52.380;7.018;2024-01-30T08:53:59;10.88;;;7.95;;
39098;SDS011;24844;52.380;7.018;2024-01-30T08:56:25;13.07;;;7.80;;
39098;SDS011;24844;52.380;7.018;2024-01-30T08:58:50;11.07;;;7.78;;
39098;SDS011;24844;52.380;7.018;2024-01-30T09:01:16;11.60;;;7.63;;
39098;SDS011;24844;52.380;7.018;2024-01-30T09:03:42;10.18;;;7.55;;
39098;SDS011;24844;52.380;7.018;2024-01-30T09:06:10;10.82;;;7.50;;
39098;SDS011;24844;52.380;7.018;2024-01-30T09:08:36;13.93;;;8.45;;
39098;SDS011;24844;52.380;7.018;2024-01-30T09:11:09;10.45;;;7.78;;
39098;SDS011;24844;52.380;7.018;2024-01-30T09:13:35;12.35;;;8.05;;
39098;SDS011;24844;52.380;7.018;2024-01-30T09:16:01;12.57;;;8.48;;
39098;SDS011;24844;52.380;7.018;2024-01-30T09:18:27;12.38;;;7.82;;
39098;SDS011;24844;52.380;7.018;2024-01-30T09:20:52;11.32;;;8.15;;
39098;SDS011;24844;52.380;7.018;2024-01-30T09:23:18;11.98;;;7.53;;
39098;SDS011;24844;52.380;7.018;2024-01-30T09:25:44;12.48;;;7.75;;
39098;SDS011;24844;52.380;7.018;2024-01-30T09:28:10;14.48;;;7.80;;
39098;SDS011;24844;52.380;7.018;2024-01-30T09:30:35;15.75;;;8.23;;
39098;SDS011;24844;52.380;7.018;2024-01-30T09:33:01;14.52;;;7.10;;
39098;SDS011;24844;52.380;7.018;2024-01-30T09:35:27;10.65;;;7.10;;
39098;SDS011;24844;52.380;7.018;2024-01-30T09:37:52;11.05;;;7.35;;
39098;SDS011;24844;52.380;7.018;2024-01-30T09:40:18;11.88;;;7.30;;
39098;SDS011;24844;52.380;7.018;2024-01-30T09:42:48;13.93;;;8.00;;
39098;SDS011;24844;52.380;7.018;2024-01-30T09:45:15;10.02;;;6.85;;
39098;SDS011;24844;52.380;7.018;2024-01-30T09:47:43;12.52;;;7.88;;
39098;SDS011;24844;52.380;7.018;2024-01-30T09:50:13;10.30;;;7.20;;
39098;SDS011;24844;52.380;7.018;2024-01-30T09:52:40;14.27;;;7.72;;
39098;SDS011;24844;52.380;7.018;2024-01-30T09:55:06;16.35;;;7.63;;
39098;SDS011;24844;52.380;7.018;2024-01-30T09:57:32;11.38;;;7.78;;
39098;SDS011;24844;52.380;7.018;2024-01-30T09:59:59;10.77;;;7.28;;
39098;SDS011;24844;52.380;7.018;2024-01-30T10:02:25;14.60;;;7.85;;
39098;SDS011;24844;52.380;7.018;2024-01-30T10:04:51;14.00;;;7.63;;
39098;SDS011;24844;52.380;7.018;2024-01-30T10:07:20;12.88;;;8.40;;
39098;SDS011;24844;52.380;7.018;2024-01-30T10:12:11;17.08;;;7.57;;
39098;SDS011;24844;52.380;7.018;2024-01-30T10:14:38;12.75;;;8.15;;
39098;SDS011;24844;52.380;7.018;2024-01-30T10:17:04;11.40;;;7.28;;
39098;SDS011;24844;52.380;7.018;2024-01-30T10:19:30;8.30;;;7.05;;
39098;SDS011;24844;52.380;7.018;2024-01-30T10:21:56;10.77;;;7.10;;
39098;SDS011;24844;52.380;7.018;2024-01-30T10:24:28;11.10;;;7.85;;
39098;SDS011;24844;52.380;7.018;2024-01-30T10:26:56;12.63;;;6.80;;
39098;SDS011;24844;52.380;7.018;2024-01-30T10:29:22;11.63;;;7.53;;
39098;SDS011;24844;52.380;7.018;2024-01-30T10:32:06;14.20;;;8.07;;
39098;SDS011;24844;52.380;7.018;2024-01-30T10:34:32;14.43;;;8.23;;
39098;SDS011;24844;52.380;7.018;2024-01-30T10:37:00;14.02;;;7.93;;
39098;SDS011;24844;52.380;7.018;2024-01-30T10:39:38;14.10;;;8.07;;
39098;SDS011;24844;52.380;7.018;2024-01-30T10:42:05;15.05;;;7.97;;
39098;SDS011;24844;52.380;7.018;2024-01-30T10:44:40;12.88;;;7.25;;
39098;SDS011;24844;52.380;7.018;2024-01-30T10:47:25;15.18;;;7.85;;
39098;SDS011;24844;52.380;7.018;2024-01-30T10:49:52;15.57;;;8.05;;
39098;SDS011;24844;52.380;7.018;2024-01-30T10:52:19;11.88;;;7.70;;
39098;SDS011;24844;52.380;7.018;2024-01-30T10:54:45;15.43;;;8.52;;
39098;SDS011;24844;52.380;7.018;2024-01-30T10:57:12;16.88;;;8.38;;
39098;SDS011;24844;52.380;7.018;2024-01-30T10:59:40;12.88;;;8.00;;
39098;SDS011;24844;52.380;7.018;2024-01-30T11:02:07;9.70;;;7.53;;
39098;SDS011;24844;52.380;7.018;2024-01-30T11:04:54;11.63;;;8.77;;
39098;SDS011;24844;52.380;7.018;2024-01-30T11:07:25;11.32;;;8.23;;
39098;SDS011;24844;52.380;7.018;2024-01-30T11:12:23;14.65;;;7.30;;
39098;SDS011;24844;52.380;7.018;2024-01-30T11:15:01;12.52;;;7.13;;
39098;SDS011;24844;52.380;7.018;2024-01-30T11:17:28;14.77;;;8.07;;
39098;SDS011;24844;52.380;7.018;2024-01-30T11:20:04;12.73;;;7.82;;
39098;SDS011;24844;52.380;7.018;2024-01-30T11:22:30;13.90;;;8.43;;
39098;SDS011;24844;52.380;7.018;2024-01-30T11:24:56;8.80;;;7.45;;
39098;SDS011;24844;52.380;7.018;2024-01-30T11:27:22;15.85;;;8.10;;
39098;SDS011;24844;52.380;7.018;2024-01-30T11:29:49;14.13;;;8.52;;
39098;SDS011;24844;52.380;7.018;2024-01-30T11:32:21;44.10;;;9.20;;
39098;SDS011;24844;52.380;7.018;2024-01-30T11:34:48;17.50;;;8.65;;
39098;SDS011;24844;52.380;7.018;2024-01-30T11:37:15;12.60;;;7.63;;
39098;SDS011;24844;52.380;7.018;2024-01-30T11:39:45;11.93;;;8.02;;
39098;SDS011;24844;52.380;7.018;2024-01-30T11:42:11;11.98;;;8.38;;
39098;SDS011;24844;52.380;7.018;2024-01-30T11:44:38;9.27;;;7.18;;
39098;SDS011;24844;52.380;7.018;2024-01-30T11:47:04;13.25;;;7.78;;
39098;SDS011;24844;52.380;7.018;2024-01-30T11:49:29;12.52;;;7.78;;
39098;SDS011;24844;52.380;7.018;2024-01-30T11:51:55;12.98;;;7.20;;
39098;SDS011;24844;52.380;7.018;2024-01-30T11:54:21;13.70;;;8.43;;
39098;SDS011;24844;52.380;7.018;2024-01-30T11:56:47;11.82;;;7.82;;
39098;SDS011;24844;52.380;7.018;2024-01-30T11:59:13;11.88;;;7.55;;
39098;SDS011;24844;52.380;7.018;2024-01-30T12:01:39;19.15;;;8.57;;
39098;SDS011;24844;52.380;7.018;2024-01-30T12:04:04;13.38;;;8.65;;
39098;SDS011;24844;52.380;7.018;2024-01-30T12:06:34;12.27;;;7.45;;
39098;SDS011;24844;52.380;7.018;2024-01-30T12:09:00;13.10;;;8.20;;
39098;SDS011;24844;52.380;7.018;2024-01-30T12:11:29;11.48;;;7.63;;
39098;SDS011;24844;52.380;7.018;2024-01-30T12:13:55;11.75;;;7.78;;
39098;SDS011;24844;52.380;7.018;2024-01-30T12:16:21;17.98;;;7.85;;
39098;SDS011;24844;52.380;7.018;2024-01-30T12:18:47;15.77;;;8.82;;
39098;SDS011;24844;52.380;7.018;2024-01-30T12:21:16;11.25;;;7.20;;
39098;SDS011;24844;52.380;7.018;2024-01-30T12:23:42;10.70;;;7.15;;
39098;SDS011;24844;52.380;7.018;2024-01-30T12:26:08;19.23;;;8.30;;
39098;SDS011;24844;52.380;7.018;2024-01-30T12:28:34;12.93;;;7.25;;
39098;SDS011;24844;52.380;7.018;2024-01-30T12:31:03;9.35;;;7.30;;
39098;SDS011;24844;52.380;7.018;2024-01-30T12:33:29;12.75;;;7.63;;
39098;SDS011;24844;52.380;7.018;2024-01-30T12:35:55;16.95;;;8.63;;
39098;SDS011;24844;52.380;7.018;2024-01-30T12:38:24;11.75;;;8.13;;
39098;SDS011;24844;52.380;7.018;2024-01-30T12:40:53;11.98;;;7.72;;
39098;SDS011;24844;52.380;7.018;2024-01-30T12:43:20;11.25;;;7.80;;
39098;SDS011;24844;52.380;7.018;2024-01-30T12:45:46;12.93;;;8.00;;
39098;SDS011;24844;52.380;7.018;2024-01-30T12:48:12;16.02;;;8.98;;
39098;SDS011;24844;52.380;7.018;2024-01-30T12:50:38;13.07;;;8.70;;
39098;SDS011;24844;52.380;7.018;2024-01-30T12:53:03;15.23;;;8.52;;
39098;SDS011;24844;52.380;7.018;2024-01-30T12:55:29;13.77;;;8.10;;
39098;SDS011;24844;52.380;7.018;2024-01-30T12:57:55;17.92;;;9.35;;
39098;SDS011;24844;52.380;7.018;2024-01-30T13:00:21;13.88;;;9.18;;
39098;SDS011;24844;52.380;7.018;2024-01-30T13:02:47;13.95;;;8.90;;
39098;SDS011;24844;52.380;7.018;2024-01-30T13:05:13;17.88;;;10.07;;
39098;SDS011;24844;52.380;7.018;2024-01-30T13:07:39;14.20;;;9.25;;
39098;SDS011;24844;52.380;7.018;2024-01-30T13:10:05;14.52;;;9.52;;
39098;SDS011;24844;52.380;7.018;2024-01-30T13:12:31;14.05;;;8.90;;
39098;SDS011;24844;52.380;7.018;2024-01-30T13:14:59;16.92;;;9.88;;
39098;SDS011;24844;52.380;7.018;2024-01-30T13:17:29;16.30;;;8.73;;
39098;SDS011;24844;52.380;7.018;2024-01-30T13:19:55;15.85;;;8.85;;
39098;SDS011;24844;52.380;7.018;2024-01-30T13:22:21;17.95;;;8.77;;
39098;SDS011;24844;52.380;7.018;2024-01-30T13:24:47;14.13;;;8.40;;
39098;SDS011;24844;52.380;7.018;2024-01-30T13:27:13;15.52;;;8.43;;
39098;SDS011;24844;52.380;7.018;2024-01-30T13:29:38;11.20;;;7.97;;
39098;SDS011;24844;52.380;7.018;2024-01-30T13:32:04;17.73;;;8.25;;
39098;SDS011;24844;52.380;7.018;2024-01-30T13:34:30;12.70;;;7.30;;
39098;SDS011;24844;52.380;7.018;2024-01-30T13:36:56;13.20;;;7.03;;
39098;SDS011;24844;52.380;7.018;2024-01-30T13:39:21;13.43;;;6.90;;
39098;SDS011;24844;52.380;7.018;2024-01-30T13:41:48;10.48;;;7.43;;
39098;SDS011;24844;52.380;7.018;2024-01-30T13:44:14;14.63;;;7.60;;
39098;SDS011;24844;52.380;7.018;2024-01-30T13:46:41;9.90;;;6.90;;
39098;SDS011;24844;52.380;7.018;2024-01-30T13:49:07;8.77;;;6.70;;
39098;SDS011;24844;52.380;7.018;2024-01-30T13:51:32;12.35;;;6.50;;
39098;SDS011;24844;52.380;7.018;2024-01-30T13:53:58;12.50;;;7.38;;
39098;SDS011;24844;52.380;7.018;2024-01-30T13:56:24;11.88;;;6.60;;
39098;SDS011;24844;52.380;7.018;2024-01-30T13:58:51;10.02;;;7.13;;
39098;SDS011;24844;52.380;7.018;2024-01-30T14:01:17;9.93;;;6.30;;
39098;SDS011;24844;52.380;7.018;2024-01-30T14:03:43;9.20;;;6.32;;
39098;SDS011;24844;52.380;7.018;2024-01-30T14:06:08;12.52;;;6.32;;
39098;SDS011;24844;52.380;7.018;2024-01-30T14:08:34;8.88;;;5.82;;
39098;SDS011;24844;52.380;7.018;2024-01-30T14:11:00;9.93;;;5.22;;
39098;SDS011;24844;52.380;7.018;2024-01-30T14:13:25;10.85;;;5.95;;
39098;SDS011;24844;52.380;7.018;2024-01-30T14:15:51;10.27;;;5.50;;
39098;SDS011;24844;52.380;7.018;2024-01-30T14:18:17;14.35;;;6.28;;
39098;SDS011;24844;52.380;7.018;2024-01-30T14:20:43;12.10;;;5.75;;
39098;SDS011;24844;52.380;7.018;2024-01-30T14:23:09;8.40;;;5.45;;
39098;SDS011;24844;52.380;7.018;2024-01-30T14:25:34;10.02;;;5.40;;
39098;SDS011;24844;52.380;7.018;2024-01-30T14:28:00;8.57;;;5.45;;